Time;durP1;ratioP1;P1;durP2;ratioP2;P2;SDS_P1;SDS_P2;PMS_P1;PMS_P2;Temp;Humidity;BMP_temperature;BMP_pressure;BME280_temperature;BME280_humidity;BME280_pressure;Samples;Min_cycle;Max_cycle;Signal;HPM_P1;HPM_P2
2021/06/17 00:00:10;;;;;;;7.10;6.50;;;26.50;46.40;;;;;;5050968;28;20649;-51
2021/06/17 00:02:38;;;;;;;7.93;7.33;;;26.50;46.30;;;;;;5045720;28;20627;-51
2021/06/17 00:05:06;;;;;;;7.23;6.73;;;26.50;46.20;;;;;;5045399;28;20636;-51
2021/06/17 00:07:33;;;;;;;6.30;5.70;;;26.50;46.00;;;;;;5050718;28;20772;-51
2021/06/17 00:10:00;;;;;;;6.40;5.90;;;26.50;46.20;;;;;;5049385;28;20629;-53
2021/06/17 00:12:27;;;;;;;4.70;4.30;;;26.40;46.40;;;;;;5032783;28;20681;-52
2021/06/17 00:14:56;;;;;;;5.90;5.30;;;26.40;46.40;;;;;;5039404;28;20658;-53
2021/06/17 00:17:23;;;;;;;4.90;4.60;;;26.40;46.20;;;;;;5048732;28;20709;-52
2021/06/17 00:19:50;;;;;;;4.90;4.60;;;26.40;46.30;;;;;;5042123;28;20663;-52
2021/06/17 00:22:17;;;;;;;4.20;3.90;;;26.40;46.40;;;;;;5047654;28;20658;-50
2021/06/17 00:24:45;;;;;;;4.97;4.57;;;26.40;46.60;;;;;;5050935;28;20736;-52
2021/06/17 00:27:12;;;;;;;5.03;4.63;;;26.40;46.80;;;;;;5050029;28;20665;-51
2021/06/17 00:29:39;;;;;;;5.50;5.00;;;26.30;47.30;;;;;;5049405;28;20699;-51
2021/06/17 00:32:09;;;;;;;5.70;4.50;;;26.30;47.40;;;;;;5049899;28;20691;-52
2021/06/17 00:34:36;;;;;;;9.37;5.57;;;26.20;47.60;;;;;;5030113;28;21030;-51
2021/06/17 00:37:04;;;;;;;5.40;5.00;;;26.20;47.60;;;;;;5030290;28;20719;-51
2021/06/17 00:39:31;;;;;;;5.33;4.93;;;26.10;47.80;;;;;;5030091;28;20650;-51
2021/06/17 00:41:58;;;;;;;5.87;4.30;;;26.10;48.10;;;;;;5030773;28;20662;-51
2021/06/17 00:44:25;;;;;;;5.50;5.10;;;26.00;48.50;;;;;;5036234;28;21197;-52
2021/06/17 00:46:52;;;;;;;5.40;4.60;;;26.00;48.80;;;;;;5049198;28;20682;-51
2021/06/17 00:49:21;;;;;;;5.00;4.60;;;25.90;48.90;;;;;;5042840;28;21203;-50
2021/06/17 00:51:48;;;;;;;5.40;4.87;;;25.90;48.60;;;;;;5034542;28;20638;-50
2021/06/17 00:54:31;;;;;;;5.67;5.20;;;25.90;48.60;;;;;;5041062;28;21227;-51
2021/06/17 00:56:58;;;;;;;5.57;5.07;;;25.80;48.60;;;;;;5030090;28;20682;-50
2021/06/17 00:59:26;;;;;;;5.53;5.13;;;25.80;48.70;;;;;;5030281;28;21487;-51
2021/06/17 01:01:53;;;;;;;5.23;4.43;;;25.80;49.00;;;;;;5047509;28;20707;-51
2021/06/17 01:04:22;;;;;;;8.70;4.70;;;25.80;49.90;;;;;;5036044;28;20882;-50
2021/06/17 01:06:49;;;;;;;5.30;4.90;;;25.70;50.00;;;;;;5045050;28;21246;-48
2021/06/17 01:09:20;;;;;;;5.77;5.23;;;25.70;49.40;;;;;;5047696;28;20658;-48
2021/06/17 01:11:50;;;;;;;7.77;5.10;;;25.50;49.90;;;;;;5050045;28;20670;-51
2021/06/17 01:14:20;;;;;;;6.70;4.77;;;25.50;49.40;;;;;;5044032;28;20668;-49
2021/06/17 01:16:49;;;;;;;5.53;5.03;;;25.40;49.00;;;;;;5034340;28;21046;-48
2021/06/17 01:19:20;;;;;;;5.13;4.73;;;25.40;49.30;;;;;;5048880;28;20670;-51
2021/06/17 01:22:00;;;;;;;4.70;4.30;;;25.40;49.70;;;;;;5049351;28;21214;-48
2021/06/17 01:24:44;;;;;;;8.77;4.80;;;25.40;49.70;;;;;;5050800;28;20673;-49
2021/06/17 01:27:37;;;;;;;5.27;4.90;;;25.40;50.00;;;;;;5050672;28;20697;-49
2021/06/17 01:30:07;;;;;;;5.37;4.97;;;25.40;50.70;;;;;;5024412;28;20622;-49
2021/06/17 01:32:34;;;;;;;5.63;5.13;;;25.30;51.00;;;;;;5031006;28;20687;-47
2021/06/17 01:35:01;;;;;;;5.70;4.90;;;25.30;51.30;;;;;;5048827;28;21005;-49
2021/06/17 01:37:29;;;;;;;5.80;5.20;;;25.30;51.20;;;;;;5050324;28;20749;-49
2021/06/17 01:39:56;;;;;;;6.73;6.07;;;25.20;51.20;;;;;;5050213;28;20743;-49
2021/06/17 01:42:43;;;;;;;7.50;6.07;;;25.20;51.40;;;;;;5148942;27;20289;-49
2021/06/17 01:45:11;;;;;;;6.33;5.83;;;25.10;51.50;;;;;;5131201;27;20650;-49
2021/06/17 01:47:38;;;;;;;6.47;5.97;;;25.10;51.70;;;;;;5127814;27;20716;-49
2021/06/17 01:50:07;;;;;;;8.40;6.00;;;25.10;51.80;;;;;;5125738;27;21037;-49
2021/06/17 01:52:34;;;;;;;6.17;5.67;;;25.00;52.10;;;;;;5127161;27;20691;-49
2021/06/17 01:55:01;;;;;;;6.23;5.73;;;25.00;52.80;;;;;;5127366;27;21158;-49
2021/06/17 01:57:28;;;;;;;6.70;6.13;;;24.90;52.20;;;;;;5126838;27;20674;-50
2021/06/17 01:59:57;;;;;;;5.87;5.47;;;24.90;52.20;;;;;;5109718;27;20666;-50
2021/06/17 02:02:24;;;;;;;7.00;6.40;;;24.80;52.20;;;;;;5117048;28;21195;-50
2021/06/17 02:04:52;;;;;;;6.37;5.87;;;24.80;52.30;;;;;;5125091;27;20637;-50
2021/06/17 02:07:21;;;;;;;7.53;5.93;;;24.80;52.50;;;;;;5127111;27;20703;-49
2021/06/17 02:09:50;;;;;;;7.00;5.77;;;24.80;52.50;;;;;;5126828;27;20651;-50
2021/06/17 02:12:18;;;;;;;5.93;5.20;;;24.70;52.50;;;;;;5127258;27;20650;-48
2021/06/17 02:14:45;;;;;;;6.13;5.60;;;24.70;52.60;;;;;;5127024;27;20924;-50
2021/06/17 02:17:14;;;;;;;9.20;5.13;;;24.70;52.70;;;;;;5108338;27;20786;-49
2021/06/17 02:19:42;;;;;;;5.90;4.83;;;24.60;52.70;;;;;;5105938;28;20659;-49
2021/06/17 02:22:09;;;;;;;5.60;5.20;;;24.60;52.80;;;;;;5125212;28;20716;-49
2021/06/17 02:24:38;;;;;;;7.73;5.47;;;24.50;52.90;;;;;;5127207;27;20629;-50
2021/06/17 02:27:06;;;;;;;5.77;5.33;;;24.50;53.20;;;;;;5126284;27;20674;-49
2021/06/17 02:29:36;;;;;;;8.73;5.40;;;24.50;53.40;;;;;;5126442;27;20662;-50
2021/06/17 02:32:04;;;;;;;4.80;4.37;;;24.40;53.40;;;;;;5110641;27;20765;-49
2021/06/17 02:34:33;;;;;;;6.37;5.53;;;24.40;53.60;;;;;;5105508;28;20800;-53
2021/06/17 02:37:00;;;;;;;5.40;4.87;;;24.30;54.00;;;;;;5106446;28;20675;-52
2021/06/17 02:39:28;;;;;;;6.90;5.70;;;24.30;53.60;;;;;;5105642;28;21281;-50
2021/06/17 02:41:56;;;;;;;5.43;5.03;;;24.30;53.90;;;;;;5105853;28;21106;-49
2021/06/17 02:44:23;;;;;;;5.23;4.80;;;24.30;53.90;;;;;;5105504;28;20691;-51
2021/06/17 02:46:51;;;;;;;4.90;4.50;;;24.30;53.70;;;;;;5105929;28;20628;-50
2021/06/17 02:49:18;;;;;;;5.63;5.13;;;24.40;53.70;;;;;;5105215;28;20754;-49
2021/06/17 02:51:46;;;;;;;6.50;5.90;;;24.40;53.60;;;;;;5112936;28;21277;-51
2021/06/17 02:54:18;;;;;;;6.27;4.93;;;24.40;53.60;;;;;;5106489;28;20666;-50
2021/06/17 02:56:51;;;;;;;6.10;5.70;;;24.40;53.80;;;;;;5111789;28;20634;-50
2021/06/17 02:59:25;;;;;;;5.53;5.03;;;24.40;54.10;;;;;;5111911;28;20654;-50
2021/06/17 03:01:55;;;;;;;5.63;5.10;;;24.40;54.20;;;;;;5111979;28;20658;-50
2021/06/17 03:04:23;;;;;;;6.70;5.40;;;24.40;54.40;;;;;;5099339;28;20651;-52
2021/06/17 03:06:52;;;;;;;5.67;5.17;;;24.30;54.60;;;;;;5091998;28;21118;-50
2021/06/17 03:09:21;;;;;;;5.30;4.90;;;24.30;54.60;;;;;;5091907;28;20660;-50
2021/06/17 03:11:49;;;;;;;5.73;5.33;;;24.20;54.90;;;;;;5110850;28;20676;-50
2021/06/17 03:14:18;;;;;;;5.50;5.00;;;24.10;55.20;;;;;;5111837;27;20642;-50
2021/06/17 03:16:48;;;;;;;6.33;5.93;;;24.10;55.40;;;;;;5102943;28;20616;-50
2021/06/17 03:19:15;;;;;;;6.50;5.90;;;24.00;55.70;;;;;;5094019;28;21148;-50
2021/06/17 03:21:44;;;;;;;6.10;5.60;;;23.90;55.90;;;;;;5108344;27;21047;-50
2021/06/17 03:24:13;;;;;;;6.30;5.63;;;23.80;55.90;;;;;;5099962;28;20731;-50
2021/06/17 03:26:40;;;;;;;6.10;5.60;;;23.70;55.90;;;;;;5093531;28;20245;-50
2021/06/17 03:29:08;;;;;;;6.83;5.50;;;23.70;55.90;;;;;;5109388;28;21074;-50
2021/06/17 03:31:35;;;;;;;5.50;5.00;;;23.60;55.60;;;;;;5107673;28;20611;-51
2021/06/17 03:34:03;;;;;;;6.43;5.83;;;23.60;55.40;;;;;;5097435;27;20742;-50
2021/06/17 03:36:30;;;;;;;8.87;8.07;;;23.60;55.10;;;;;;5089683;28;21180;-51
2021/06/17 03:38:57;;;;;;;10.37;9.50;;;23.60;54.80;;;;;;5089188;28;21430;-50
2021/06/17 03:41:25;;;;;;;12.97;9.97;;;23.60;54.80;;;;;;5088982;28;20683;-49
2021/06/17 03:43:53;;;;;;;10.97;9.97;;;23.50;54.70;;;;;;5096552;28;20666;-49
2021/06/17 03:46:20;;;;;;;11.60;10.00;;;23.50;54.70;;;;;;5109990;28;21209;-49
2021/06/17 03:48:47;;;;;;;10.70;9.60;;;23.50;54.60;;;;;;5109626;28;20731;-50
2021/06/17 03:51:15;;;;;;;10.40;9.27;;;23.50;54.40;;;;;;5109130;28;20675;-49
2021/06/17 03:53:42;;;;;;;12.23;9.80;;;23.50;54.80;;;;;;5109953;28;21160;-50
2021/06/17 03:56:09;;;;;;;11.33;10.23;;;23.60;54.40;;;;;;5093133;28;20980;-49
2021/06/17 03:58:38;;;;;;;13.60;11.30;;;23.60;54.70;;;;;;5090427;28;20737;-50
2021/06/17 04:01:06;;;;;;;10.57;9.43;;;23.60;54.40;;;;;;5106028;28;20645;-49
2021/06/17 04:03:33;;;;;;;11.57;10.40;;;23.70;54.20;;;;;;5109036;28;20698;-50
2021/06/17 04:06:00;;;;;;;12.93;10.87;;;23.80;54.30;;;;;;5088612;28;20695;-50
2021/06/17 04:08:29;;;;;;;7.73;7.00;;;23.80;54.40;;;;;;5090918;28;20656;-49
2021/06/17 04:10:56;;;;;;;10.40;8.33;;;23.80;54.30;;;;;;5101321;28;20632;-47
2021/06/17 04:13:23;;;;;;;9.43;8.50;;;23.90;54.10;;;;;;5103967;28;20663;-49
2021/06/17 04:15:52;;;;;;;9.73;8.20;;;23.90;54.20;;;;;;5089240;28;21125;-49
2021/06/17 04:18:19;;;;;;;8.73;7.93;;;23.90;54.50;;;;;;5091796;28;20698;-50
2021/06/17 04:20:47;;;;;;;8.40;7.60;;;23.90;54.80;;;;;;5095316;28;20628;-49
2021/06/17 04:23:15;;;;;;;6.93;6.23;;;23.90;55.10;;;;;;5107546;28;20751;-50
2021/06/17 04:25:43;;;;;;;8.23;6.50;;;23.90;55.30;;;;;;5108871;27;20647;-50
2021/06/17 04:28:10;;;;;;;6.17;5.40;;;24.00;55.30;;;;;;5108882;27;21070;-49
2021/06/17 04:30:37;;;;;;;7.90;5.47;;;24.00;55.30;;;;;;5109768;28;20660;-50
2021/06/17 04:33:07;;;;;;;5.53;5.03;;;23.90;55.10;;;;;;5107707;28;21143;-50
2021/06/17 04:35:36;;;;;;;4.67;4.27;;;23.90;55.30;;;;;;5099054;28;20695;-50
2021/06/17 04:38:04;;;;;;;4.57;4.27;;;23.80;55.30;;;;;;5092885;28;20717;-50
2021/06/17 04:40:32;;;;;;;6.50;5.90;;;23.90;55.30;;;;;;5108847;27;20623;-50
2021/06/17 04:43:00;;;;;;;6.73;5.57;;;23.90;55.30;;;;;;5109609;28;20683;-50
2021/06/17 04:45:28;;;;;;;6.60;5.30;;;23.90;55.40;;;;;;5108530;28;20616;-50
2021/06/17 04:47:56;;;;;;;6.00;5.50;;;23.90;55.50;;;;;;5097965;28;20846;-50
2021/06/17 04:50:25;;;;;;;5.00;4.60;;;24.00;55.70;;;;;;5106358;28;20666;-50
2021/06/17 04:53:11;;;;;;;5.20;4.80;;;24.00;55.70;;;;;;5108225;28;20651;-50
2021/06/17 04:55:42;;;;;;;5.73;5.07;;;24.10;55.60;;;;;;5108703;28;20709;-49
2021/06/17 04:58:09;;;;;;;4.90;4.53;;;24.10;55.50;;;;;;5108498;28;20655;-50
2021/06/17 05:00:36;;;;;;;4.73;4.40;;;24.20;55.70;;;;;;5108114;28;20651;-49
2021/06/17 05:03:04;;;;;;;5.73;5.23;;;24.20;56.20;;;;;;5101729;28;20676;-50
2021/06/17 05:05:32;;;;;;;7.43;5.83;;;24.30;56.40;;;;;;5088488;28;20629;-50
2021/06/17 05:10:52;;;;;;;8.50;5.97;;;24.30;56.00;;;;;;5087087;28;20593;-50
2021/06/17 05:13:20;;;;;;;7.53;5.87;;;24.40;56.10;;;;;;5090181;28;20640;-50
2021/06/17 05:15:47;;;;;;;10.20;5.20;;;24.40;56.10;;;;;;5107487;28;20731;-50
2021/06/17 05:18:15;;;;;;;5.60;4.60;;;24.40;56.10;;;;;;5108214;28;20723;-50
2021/06/17 05:20:44;;;;;;;8.77;5.17;;;24.50;55.90;;;;;;5108605;28;20631;-49
2021/06/17 05:23:13;;;;;;;7.23;4.87;;;24.50;56.10;;;;;;5108344;28;20694;-51
2021/06/17 05:25:41;;;;;;;6.20;5.67;;;24.60;56.20;;;;;;5108403;28;20663;-50
2021/06/17 05:28:08;;;;;;;7.13;5.23;;;24.60;56.20;;;;;;5107823;28;20652;-50
2021/06/17 05:30:36;;;;;;;6.40;5.80;;;24.70;56.40;;;;;;5098109;28;20983;-51
2021/06/17 05:33:03;;;;;;;7.77;4.70;;;24.90;56.40;;;;;;5108998;28;20619;-49
2021/06/17 05:35:31;;;;;;;5.50;5.00;;;24.80;56.30;;;;;;5091928;28;20656;-49
2021/06/17 05:37:59;;;;;;;5.93;5.23;;;24.80;56.80;;;;;;5089021;28;20656;-50
2021/06/17 05:40:27;;;;;;;5.70;5.30;;;24.80;56.50;;;;;;5094885;28;20747;-51
2021/06/17 05:42:54;;;;;;;5.83;5.33;;;24.80;56.60;;;;;;5091766;28;20699;-51
2021/06/17 05:45:21;;;;;;;5.80;5.30;;;24.90;56.70;;;;;;5095106;28;20655;-50
2021/06/17 05:47:49;;;;;;;6.10;5.53;;;24.90;56.80;;;;;;5108507;28;20651;-49
2021/06/17 05:50:16;;;;;;;8.13;6.10;;;24.90;56.50;;;;;;5105756;28;20766;-49
2021/06/17 05:52:45;;;;;;;6.50;5.20;;;25.00;56.40;;;;;;5103029;28;20666;-49
2021/06/17 05:55:14;;;;;;;8.63;5.83;;;25.00;56.20;;;;;;5108103;28;20649;-51
2021/06/17 05:57:41;;;;;;;6.50;5.90;;;25.10;56.20;;;;;;5099892;28;20710;-50
2021/06/17 06:00:09;;;;;;;6.00;5.40;;;25.10;56.20;;;;;;5108859;28;20659;-50
2021/06/17 06:02:36;;;;;;;10.23;5.40;;;25.20;56.00;;;;;;5107949;28;20685;-50
2021/06/17 06:05:04;;;;;;;9.00;5.97;;;25.30;56.20;;;;;;5109313;28;20991;-52
2021/06/17 06:07:32;;;;;;;6.90;6.30;;;25.30;55.70;;;;;;5108306;28;20695;-52
2021/06/17 06:09:59;;;;;;;5.50;5.00;;;25.40;55.70;;;;;;5107083;28;20623;-50
2021/06/17 06:12:27;;;;;;;6.07;5.47;;;25.40;55.50;;;;;;5108939;28;20676;-51
2021/06/17 06:14:54;;;;;;;7.63;5.40;;;25.50;55.20;;;;;;5107013;28;20643;-50
2021/06/17 06:17:22;;;;;;;6.97;6.23;;;25.60;54.80;;;;;;5107940;28;20658;-51
2021/06/17 06:19:49;;;;;;;10.90;9.90;;;25.60;55.10;;;;;;5104656;28;20675;-50
2021/06/17 06:22:16;;;;;;;5.07;4.67;;;25.70;55.30;;;;;;5109173;28;20632;-51
2021/06/17 06:24:43;;;;;;;5.93;5.37;;;25.80;55.50;;;;;;5108278;28;20717;-50
2021/06/17 06:27:13;;;;;;;6.07;5.53;;;25.80;55.30;;;;;;5108244;28;21200;-50
2021/06/17 06:29:41;;;;;;;5.73;5.33;;;25.90;55.10;;;;;;5112663;28;20670;-50
2021/06/17 06:32:09;;;;;;;6.63;5.53;;;25.90;55.60;;;;;;5111212;28;20662;-49
2021/06/17 06:34:37;;;;;;;7.73;5.90;;;26.00;55.70;;;;;;5112811;27;20643;-49
2021/06/17 06:37:04;;;;;;;12.03;6.40;;;26.00;55.80;;;;;;5111195;28;20646;-50
2021/06/17 06:39:32;;;;;;;6.87;5.50;;;26.10;55.70;;;;;;5112218;27;20627;-50
2021/06/17 06:41:59;;;;;;;5.67;5.17;;;26.20;55.50;;;;;;5105075;28;20636;-50
2021/06/17 06:44:27;;;;;;;5.33;4.93;;;26.20;55.40;;;;;;5095159;28;20684;-49
2021/06/17 06:46:56;;;;;;;6.27;5.67;;;26.30;55.10;;;;;;5109961;28;20647;-50
2021/06/17 06:49:23;;;;;;;6.40;5.80;;;26.30;54.90;;;;;;5106056;28;20659;-50
2021/06/17 06:51:50;;;;;;;9.93;6.50;;;26.40;54.50;;;;;;5103667;28;20663;-50
2021/06/17 06:54:19;;;;;;;7.10;6.13;;;26.40;55.10;;;;;;5111147;28;20966;-50
2021/06/17 06:56:47;;;;;;;9.47;6.10;;;26.40;54.50;;;;;;5111969;28;20661;-50
2021/06/17 06:59:14;;;;;;;6.90;6.20;;;26.50;54.40;;;;;;5105564;27;21147;-50
2021/06/17 07:01:41;;;;;;;10.10;6.47;;;26.50;54.20;;;;;;5092532;28;20648;-51
2021/06/17 07:04:10;;;;;;;13.00;6.17;;;26.60;53.70;;;;;;5102272;28;20698;-51
2021/06/17 07:06:39;;;;;;;7.00;5.73;;;26.60;53.50;;;;;;5111600;28;20653;-51
2021/06/17 07:09:06;;;;;;;5.80;5.30;;;26.70;53.20;;;;;;5111020;28;20692;-51
2021/06/17 07:11:34;;;;;;;9.50;5.13;;;26.70;52.10;;;;;;5111789;28;20788;-51
2021/06/17 07:14:01;;;;;;;9.17;5.83;;;26.70;51.50;;;;;;5111965;28;20627;-50
2021/06/17 07:16:28;;;;;;;6.13;5.53;;;26.70;51.70;;;;;;5101139;28;20704;-51
2021/06/17 07:18:55;;;;;;;5.47;4.97;;;26.80;51.70;;;;;;5091496;28;20679;-51
2021/06/17 07:21:24;;;;;;;5.90;5.30;;;26.80;50.80;;;;;;5111949;28;20819;-51
2021/06/17 07:23:52;;;;;;;4.77;4.33;;;26.80;51.10;;;;;;5112179;27;21081;-50
2021/06/17 07:26:21;;;;;;;7.40;4.87;;;26.80;51.10;;;;;;5103172;27;20666;-50
2021/06/17 07:28:48;;;;;;;5.30;4.80;;;26.90;50.30;;;;;;5111164;28;20706;-51
2021/06/17 07:31:15;;;;;;;9.00;4.80;;;27.00;50.10;;;;;;5111300;28;20668;-50
2021/06/17 07:33:42;;;;;;;7.17;4.50;;;27.00;49.80;;;;;;5112045;27;21049;-52
2021/06/17 07:36:12;;;;;;;5.77;4.57;;;27.10;49.70;;;;;;5111672;27;20658;-52
2021/06/17 07:38:40;;;;;;;6.43;4.63;;;27.30;49.40;;;;;;5111526;28;20646;-52
2021/06/17 07:41:08;;;;;;;7.33;5.07;;;27.50;48.60;;;;;;5106899;28;20636;-53
2021/06/17 07:43:35;;;;;;;8.70;4.80;;;27.80;47.90;;;;;;5110676;28;20679;-56
2021/06/17 07:46:04;;;;;;;5.20;4.57;;;28.10;47.50;;;;;;5109996;28;21001;-55
2021/06/17 07:48:31;;;;;;;5.07;4.22;;;28.30;48.60;;;;;;5111178;28;20791;-58
2021/06/17 07:50:58;;;;;;;5.10;4.60;;;28.40;47.90;;;;;;5111987;28;20241;-56
2021/06/17 07:53:26;;;;;;;4.97;4.57;;;28.50;47.80;;;;;;5110915;28;20654;-54
2021/06/17 07:55:54;;;;;;;5.47;4.93;;;28.60;47.40;;;;;;5095394;28;20667;-55
2021/06/17 07:58:22;;;;;;;6.93;4.90;;;28.80;46.80;;;;;;5091686;28;21073;-53
2021/06/17 08:00:49;;;;;;;5.57;4.70;;;28.90;45.50;;;;;;5092325;28;20699;-53
2021/06/17 08:03:17;;;;;;;5.93;4.27;;;29.10;45.30;;;;;;5097297;28;20646;-52
2021/06/17 08:05:44;;;;;;;7.53;4.20;;;29.20;45.30;;;;;;5110381;28;20982;-53
2021/06/17 08:08:11;;;;;;;7.83;4.83;;;29.30;44.90;;;;;;5111028;27;20681;-54
2021/06/17 08:10:40;;;;;;;7.27;5.00;;;29.40;44.10;;;;;;5108996;28;20692;-52
2021/06/17 08:13:08;;;;;;;5.60;5.10;;;29.50;43.40;;;;;;5110405;28;20639;-51
2021/06/17 08:15:36;;;;;;;5.47;4.97;;;29.50;43.30;;;;;;5103381;28;20660;-50
2021/06/17 08:18:04;;;;;;;4.73;4.40;;;29.60;43.40;;;;;;5102530;28;20671;-51
2021/06/17 08:20:32;;;;;;;6.33;5.30;;;29.60;43.50;;;;;;5110307;28;20651;-50
2021/06/17 08:22:59;;;;;;;6.67;5.20;;;29.70;43.30;;;;;;5110761;28;20692;-52
2021/06/17 08:25:26;;;;;;;7.17;5.67;;;29.80;43.00;;;;;;5109754;28;20684;-52
2021/06/17 08:27:53;;;;;;;5.33;4.93;;;29.90;43.40;;;;;;5108711;28;20677;-52
2021/06/17 08:30:23;;;;;;;11.20;5.57;;;30.00;43.90;;;;;;5090222;28;20624;-52
2021/06/17 08:32:50;;;;;;;16.37;6.00;;;29.90;44.30;;;;;;5096174;28;20867;-50
2021/06/17 08:35:17;;;;;;;5.83;5.10;;;29.80;44.50;;;;;;5100036;28;21191;-49
2021/06/17 08:37:45;;;;;;;6.30;5.67;;;29.70;44.90;;;;;;5110358;28;20690;-49
2021/06/17 08:40:12;;;;;;;6.17;5.60;;;29.50;45.30;;;;;;5110437;28;20680;-50
2021/06/17 08:42:40;;;;;;;6.30;5.70;;;29.40;45.80;;;;;;5109776;28;20650;-50
2021/06/17 08:45:10;;;;;;;6.00;5.40;;;29.30;46.30;;;;;;5109808;28;20787;-52
2021/06/17 08:47:38;;;;;;;6.20;5.60;;;29.30;46.90;;;;;;5108547;28;20985;-54
2021/06/17 08:50:07;;;;;;;7.43;6.10;;;29.30;47.10;;;;;;5106897;28;20657;-51
2021/06/17 08:52:35;;;;;;;8.13;6.47;;;29.30;47.20;;;;;;5112075;28;20619;-52
2021/06/17 08:55:13;;;;;;;5.80;5.30;;;29.40;47.20;;;;;;5110698;28;20654;-54
2021/06/17 08:57:41;;;;;;;5.23;4.83;;;29.40;46.40;;;;;;5110148;28;20670;-53
2021/06/17 09:00:34;;;;;;;5.53;5.00;;;29.50;45.30;;;;;;5111729;28;20631;-49
2021/06/17 09:03:04;;;;;;;5.93;5.43;;;29.60;45.10;;;;;;5105655;28;20619;-51
2021/06/17 09:05:32;;;;;;;6.03;5.63;;;29.60;45.10;;;;;;5106532;28;20768;-52
2021/06/17 09:08:00;;;;;;;6.90;5.73;;;29.60;44.90;;;;;;5108850;28;20671;-53
2021/06/17 09:10:27;;;;;;;8.00;5.90;;;29.70;44.70;;;;;;5110432;28;20701;-52
2021/06/17 09:12:55;;;;;;;5.40;5.00;;;29.70;45.10;;;;;;5091227;28;20716;-52
2021/06/17 09:15:44;;;;;;;6.97;4.87;;;29.70;45.50;;;;;;5108948;28;20923;-51
2021/06/17 09:18:17;;;;;;;7.10;6.23;;;29.80;45.50;;;;;;5109838;28;20655;-53
2021/06/17 09:20:52;;;;;;;7.37;6.67;;;30.00;45.10;;;;;;5110751;28;21156;-52
2021/06/17 09:23:24;;;;;;;6.57;6.10;;;30.20;44.80;;;;;;5111336;28;20630;-54
2021/06/17 09:25:52;;;;;;;6.33;5.83;;;30.50;43.60;;;;;;5111026;28;20691;-52
2021/06/17 09:28:19;;;;;;;10.07;5.97;;;30.80;43.10;;;;;;5110432;28;20799;-53
2021/06/17 09:30:47;;;;;;;6.30;5.80;;;31.20;42.50;;;;;;5112127;28;20646;-53
2021/06/17 09:33:15;;;;;;;6.57;6.07;;;31.40;42.10;;;;;;5110528;28;20746;-53
2021/06/17 09:35:53;;;;;;;5.90;5.50;;;31.70;41.60;;;;;;5110543;28;20642;-52
2021/06/17 09:38:20;;;;;;;8.00;6.93;;;31.90;41.10;;;;;;5108111;28;20655;-54
2021/06/17 09:40:50;;;;;;;6.83;6.20;;;32.10;40.90;;;;;;5109285;28;20689;-54
2021/06/17 09:43:19;;;;;;;8.30;7.10;;;32.10;41.00;;;;;;5109499;28;20627;-54
2021/06/17 09:45:54;;;;;;;7.13;6.43;;;32.00;40.80;;;;;;5108586;28;20698;-52
2021/06/17 09:48:50;;;;;;;8.20;7.60;;;31.80;41.00;;;;;;5109008;28;20678;-53
2021/06/17 09:51:38;;;;;;;6.93;6.47;;;31.60;41.40;;;;;;5056773;28;20632;-52
2021/06/17 09:54:20;;;;;;;6.57;6.13;;;31.30;41.40;;;;;;5089242;28;20623;-50
2021/06/17 09:56:55;;;;;;;8.57;7.20;;;31.20;41.70;;;;;;5089006;28;20751;-52
2021/06/17 09:59:33;;;;;;;8.20;7.57;;;31.00;42.20;;;;;;5103607;28;20683;-53
2021/06/17 10:02:01;;;;;;;7.20;6.50;;;30.90;42.30;;;;;;5099279;28;20751;-53
2021/06/17 10:04:29;;;;;;;8.10;7.40;;;30.80;42.70;;;;;;5101761;28;20317;-53
2021/06/17 10:06:57;;;;;;;8.13;7.30;;;30.70;42.90;;;;;;5113470;28;20654;-55
2021/06/17 10:09:24;;;;;;;7.90;7.30;;;30.70;43.10;;;;;;5113312;28;20655;-53
2021/06/17 10:11:51;;;;;;;9.10;8.30;;;30.70;43.10;;;;;;5112374;28;20903;-53
2021/06/17 10:14:19;;;;;;;8.13;7.63;;;30.70;42.80;;;;;;5104586;28;20658;-50
2021/06/17 10:16:47;;;;;;;8.20;7.60;;;30.60;43.00;;;;;;5110728;28;20619;-51
2021/06/17 10:19:15;;;;;;;8.70;7.97;;;30.60;43.10;;;;;;5112572;28;20665;-52
2021/06/17 10:21:44;;;;;;;8.90;8.27;;;30.60;43.10;;;;;;5109813;28;20670;-50
2021/06/17 10:24:16;;;;;;;10.23;9.33;;;30.70;43.30;;;;;;5107522;28;20659;-52
2021/06/17 10:26:44;;;;;;;8.00;7.40;;;30.70;43.50;;;;;;5110983;28;21156;-52
2021/06/17 10:29:23;;;;;;;8.93;8.30;;;30.70;43.50;;;;;;5111104;28;20647;-52
2021/06/17 10:31:50;;;;;;;10.60;8.83;;;30.80;43.60;;;;;;5107507;28;21047;-52
2021/06/17 10:34:37;;;;;;;9.00;8.03;;;30.80;43.60;;;;;;5111676;28;21116;-53
2021/06/17 10:37:10;;;;;;;8.37;7.67;;;30.80;43.30;;;;;;5111217;28;20721;-52
2021/06/17 10:39:38;;;;;;;9.30;8.60;;;30.90;43.00;;;;;;5103599;28;20655;-52
2021/06/17 10:42:30;;;;;;;11.77;7.97;;;30.90;43.20;;;;;;5105867;28;20763;-51
2021/06/17 10:44:58;;;;;;;7.80;7.13;;;30.90;43.00;;;;;;5107494;28;20683;-50
2021/06/17 10:48:12;;;;;;;6.70;6.20;;;31.00;43.30;;;;;;5109991;28;20707;-51
2021/06/17 10:50:51;;;;;;;13.07;7.77;;;31.00;42.20;;;;;;5094351;28;20783;-51
2021/06/17 10:53:52;;;;;;;9.00;7.47;;;31.00;42.30;;;;;;5112175;28;20640;-51
2021/06/17 10:56:21;;;;;;;7.00;6.60;;;31.00;42.40;;;;;;5111052;28;20614;-51
2021/06/17 10:58:58;;;;;;;7.90;7.13;;;31.00;42.20;;;;;;5106750;28;20735;-49
2021/06/17 11:01:36;;;;;;;6.07;5.37;;;31.10;42.20;;;;;;5111751;28;20618;-50
2021/06/17 11:04:15;;;;;;;9.60;6.93;;;31.10;41.80;;;;;;5111150;28;20619;-50
2021/06/17 11:07:19;;;;;;;8.20;7.23;;;31.20;41.90;;;;;;5108063;28;20736;-49
2021/06/17 11:10:04;;;;;;;8.60;7.30;;;31.20;41.70;;;;;;5025895;28;20646;-49
2021/06/17 11:12:46;;;;;;;6.67;6.07;;;31.30;42.10;;;;;;5083988;28;20636;-51
2021/06/17 11:15:38;;;;;;;6.40;5.90;;;31.30;41.60;;;;;;5090255;28;21018;-51
2021/06/17 11:18:06;;;;;;;7.00;6.50;;;31.50;40.60;;;;;;5091235;28;21265;-53
2021/06/17 11:20:37;;;;;;;6.60;6.00;;;31.60;40.30;;;;;;5111899;28;20684;-52
2021/06/17 11:23:05;;;;;;;5.83;5.33;;;31.80;40.10;;;;;;5104692;28;20700;-50
2021/06/17 11:25:34;;;;;;;6.23;5.83;;;31.90;40.00;;;;;;5111031;28;20659;-51
2021/06/17 11:28:02;;;;;;;6.63;6.13;;;32.00;39.20;;;;;;5089822;28;20681;-51
2021/06/17 11:30:54;;;;;;;6.90;5.93;;;32.00;38.80;;;;;;5102032;28;20669;-50
2021/06/17 11:33:47;;;;;;;6.57;5.97;;;32.10;38.90;;;;;;5113818;28;20627;-51
2021/06/17 11:36:15;;;;;;;7.03;6.53;;;32.20;38.50;;;;;;5108314;27;20715;-52
2021/06/17 11:38:43;;;;;;;7.83;5.90;;;32.30;38.40;;;;;;5113148;28;20651;-52
2021/06/17 11:41:13;;;;;;;6.10;5.37;;;32.40;38.60;;;;;;5111423;28;21253;-53
2021/06/17 11:43:41;;;;;;;14.60;7.00;;;32.50;38.60;;;;;;5113498;27;20627;-51
2021/06/17 11:46:19;;;;;;;9.00;5.93;;;32.60;38.20;;;;;;5112363;28;20698;-52
2021/06/17 11:48:51;;;;;;;6.00;5.40;;;32.70;38.00;;;;;;5110007;28;20697;-53
2021/06/17 11:51:19;;;;;;;6.20;5.50;;;32.70;38.10;;;;;;5109366;28;20658;-51
2021/06/17 11:53:49;;;;;;;5.73;5.10;;;32.70;38.10;;;;;;5108956;28;20649;-53
2021/06/17 11:56:29;;;;;;;5.30;4.90;;;32.80;37.70;;;;;;5111069;27;20619;-53
2021/06/17 11:58:56;;;;;;;7.43;5.97;;;32.80;37.20;;;;;;5102658;28;20652;-53
2021/06/17 12:01:25;;;;;;;6.20;5.43;;;32.90;36.80;;;;;;5092666;28;20930;-53
2021/06/17 12:04:00;;;;;;;5.57;5.17;;;32.90;36.60;;;;;;5089807;28;21076;-52
2021/06/17 12:06:27;;;;;;;5.70;5.20;;;32.90;37.30;;;;;;5090048;28;21423;-52
2021/06/17 12:09:05;;;;;;;6.17;5.67;;;32.90;36.80;;;;;;5090411;28;20698;-53
2021/06/17 12:11:35;;;;;;;6.90;4.90;;;32.90;36.80;;;;;;5111666;28;21045;-52
2021/06/17 12:14:04;;;;;;;5.60;5.20;;;32.80;35.80;;;;;;5105628;28;20654;-52
2021/06/17 12:16:32;;;;;;;6.07;5.40;;;32.80;35.70;;;;;;5110071;28;20620;-51
2021/06/17 12:18:59;;;;;;;5.53;5.03;;;32.80;36.00;;;;;;5103777;28;20652;-52
2021/06/17 12:21:28;;;;;;;5.50;5.00;;;32.80;36.20;;;;;;5100464;28;20662;-52
2021/06/17 12:23:56;;;;;;;7.10;6.30;;;32.80;35.40;;;;;;5103472;28;20652;-56
2021/06/17 12:26:29;;;;;;;5.73;5.23;;;32.80;35.00;;;;;;5088509;28;20753;-51
2021/06/17 12:28:58;;;;;;;5.43;5.10;;;32.80;35.30;;;;;;5093159;28;20651;-54
2021/06/17 12:31:26;;;;;;;6.60;5.50;;;32.80;35.70;;;;;;5101364;28;20644;-52
2021/06/17 12:34:05;;;;;;;5.97;5.33;;;32.80;36.00;;;;;;5090635;28;20648;-51
2021/06/17 12:36:32;;;;;;;7.47;6.23;;;32.80;36.20;;;;;;5106382;28;20615;-50
2021/06/17 12:39:08;;;;;;;6.07;5.67;;;32.80;36.50;;;;;;5109546;28;20659;-51
2021/06/17 12:41:41;;;;;;;11.90;5.70;;;32.80;36.40;;;;;;5109452;28;20895;-52
2021/06/17 12:44:10;;;;;;;8.07;5.30;;;32.90;36.50;;;;;;5108945;28;20701;-53
2021/06/17 12:46:38;;;;;;;7.00;6.50;;;33.00;36.60;;;;;;5109503;28;20683;-51
2021/06/17 12:52:04;;;;;;;7.47;5.73;;;33.10;36.80;;;;;;5109099;28;20595;-53
2021/06/17 12:54:32;;;;;;;6.90;6.20;;;33.10;37.00;;;;;;5109477;28;20623;-52
2021/06/17 12:57:01;;;;;;;6.73;6.10;;;33.20;36.10;;;;;;5098996;28;20698;-52
2021/06/17 12:59:52;;;;;;;7.20;6.70;;;33.30;35.90;;;;;;5089861;28;20628;-53
2021/06/17 13:02:40;;;;;;;7.50;7.00;;;33.40;36.20;;;;;;5101614;28;20696;-52
2021/06/17 13:05:08;;;;;;;7.53;6.90;;;33.50;36.20;;;;;;5110543;28;20988;-53